createdAt,value
2023-05-01T00:00:41.860Z,89.16
2023-05-01T00:03:10.149Z,89.22
2023-05-01T00:05:38.392Z,89.25
2023-05-01T00:08:07.691Z,89.10
2023-05-01T00:10:37.000Z,90.80
2023-05-01T00:13:06.900Z,90.86
2023-05-01T00:15:35.228Z,90.85
2023-05-01T00:18:03.467Z,90.59
2023-05-01T00:20:32.264Z,89.73
2023-05-01T00:23:00.450Z,91.02
2023-05-01T00:25:28.784Z,92.42
2023-05-01T00:27:56.908Z,92.51
2023-05-01T00:30:27.805Z,92.68
2023-05-01T00:32:56.122Z,92.70
2023-05-01T00:35:24.254Z,91.35
2023-05-01T00:37:52.549Z,92.61
2023-05-01T00:40:21.054Z,92.76
2023-05-01T00:42:49.274Z,93.86
2023-05-01T00:45:17.458Z,93.68
2023-05-01T00:47:48.106Z,92.03
2023-05-01T00:50:16.400Z,93.14
2023-05-01T00:52:44.575Z,92.92
2023-05-01T00:55:12.843Z,94.63
2023-05-01T00:57:41.169Z,95.25
2023-05-01T01:00:12.562Z,94.47
2023-05-01T01:02:41.046Z,94.78
2023-05-01T01:05:11.678Z,95.37
2023-05-01T01:07:50.526Z,94.13
2023-05-01T01:10:27.873Z,96.28
2023-05-01T01:13:05.775Z,97.04
2023-05-01T01:15:38.002Z,97.62
2023-05-01T01:18:11.189Z,97.02
2023-05-01T01:20:46.637Z,95.31
2023-05-01T01:23:52.140Z,95.71
2023-05-01T01:26:40.931Z,94.86
2023-05-01T01:29:51.146Z,96.33
2023-05-01T01:32:44.401Z,96.33
2023-05-01T01:35:19.820Z,97.38
2023-05-01T01:37:55.575Z,98.22
2023-05-01T01:40:27.284Z,98.31
2023-05-01T01:43:01.683Z,96.73
2023-05-01T01:45:35.522Z,97.16
2023-05-01T01:48:07.455Z,97.34
2023-05-01T01:50:39.083Z,98.61
2023-05-01T01:53:10.190Z,98.88
2023-05-01T01:55:41.759Z,100.00
2023-05-01T01:58:11.137Z,100.00
2023-05-01T02:00:42.136Z,100.00
2023-05-01T02:03:11.855Z,100.00
2023-05-01T02:05:43.699Z,100.00
2023-05-01T02:08:14.634Z,100.00
2023-05-01T02:10:45.350Z,100.00
2023-05-01T02:13:15.868Z,100.00
2023-05-01T02:15:46.676Z,100.00
2023-05-01T02:18:16.285Z,100.00
2023-05-01T02:20:46.235Z,100.00
2023-05-01T02:23:15.100Z,100.00
2023-05-01T02:25:45.708Z,100.00
2023-05-01T02:28:16.748Z,100.00
2023-05-01T02:30:45.197Z,100.00
2023-05-01T02:33:13.445Z,100.00
2023-05-01T02:35:42.155Z,100.00
2023-05-01T02:38:12.951Z,100.00
2023-05-01T02:40:42.671Z,100.00
2023-05-01T02:43:13.909Z,100.00
2023-05-01T02:45:44.120Z,100.00
2023-05-01T02:48:17.313Z,100.00
2023-05-01T02:50:46.201Z,100.00
2023-05-01T02:53:16.601Z,100.00
2023-05-01T02:55:45.195Z,100.00
2023-05-01T02:58:16.983Z,100.00
2023-05-01T03:00:45.729Z,100.00
2023-05-01T03:03:14.069Z,100.00
2023-05-01T03:05:42.375Z,100.00
2023-05-01T03:08:11.790Z,100.00
2023-05-01T03:10:43.351Z,100.00
2023-05-01T03:13:12.271Z,100.00
2023-05-01T03:15:41.402Z,100.00
2023-05-01T03:18:09.834Z,100.00
2023-05-01T03:20:38.083Z,100.00
2023-05-01T03:23:06.511Z,100.00
2023-05-01T03:25:34.681Z,100.00
2023-05-01T03:28:04.330Z,100.00
2023-05-01T03:30:35.090Z,100.00
2023-05-01T03:33:03.617Z,100.00
2023-05-01T03:35:31.828Z,100.00
2023-05-01T03:38:00.078Z,100.00
2023-05-01T03:40:28.288Z,100.00
2023-05-01T03:42:56.524Z,100.00
2023-05-01T03:45:26.056Z,100.00
2023-05-01T03:47:54.388Z,100.00
2023-05-01T03:50:22.550Z,100.00
2023-05-01T03:52:50.706Z,100.00
2023-05-01T03:55:19.033Z,100.00
2023-05-01T03:57:48.174Z,100.00
2023-05-01T04:00:16.883Z,100.00
2023-05-01T04:02:46.625Z,100.00
2023-05-01T04:05:15.220Z,100.00
2023-05-01T04:07:43.770Z,100.00
2023-05-01T04:10:12.044Z,100.00
2023-05-01T04:12:40.321Z,100.00
2023-05-01T04:15:10.019Z,100.00
2023-05-01T04:17:38.330Z,100.00
2023-05-01T04:20:09.019Z,100.00
2023-05-01T04:22:37.197Z,100.00
2023-05-01T04:25:05.866Z,100.00
2023-05-01T04:27:34.077Z,100.00
2023-05-01T04:30:02.232Z,100.00
2023-05-01T04:32:30.581Z,100.00
2023-05-01T04:34:58.742Z,100.00
2023-05-01T04:37:28.217Z,99.69
2023-05-01T04:39:57.103Z,99.98
2023-05-01T04:42:31.086Z,99.91
2023-05-01T04:45:01.737Z,100.00
2023-05-01T04:47:29.916Z,100.00
2023-05-01T04:49:58.307Z,100.00
2023-05-01T04:52:28.037Z,100.00
2023-05-01T04:54:58.006Z,100.00
2023-05-01T04:57:26.260Z,99.62
2023-05-01T04:59:54.543Z,98.52
2023-05-01T05:02:22.859Z,97.63
2023-05-01T05:04:51.182Z,98.21
2023-05-01T05:07:19.403Z,99.30
2023-05-01T05:09:49.159Z,100.00
2023-05-01T05:12:17.519Z,98.98
2023-05-01T05:14:45.668Z,97.83
2023-05-01T05:17:13.844Z,95.16
2023-05-01T05:19:41.973Z,95.51
2023-05-01T05:22:12.266Z,97.32
2023-05-01T05:24:40.660Z,99.86
2023-05-01T05:27:10.296Z,100.00
2023-05-01T05:29:38.568Z,100.00
2023-05-01T05:32:07.331Z,100.00
2023-05-01T05:34:35.586Z,98.43
2023-05-01T05:37:03.747Z,100.00
2023-05-01T05:39:32.016Z,100.00
2023-05-01T05:42:00.176Z,98.73
2023-05-01T05:44:29.718Z,98.43
2023-05-01T05:46:57.868Z,99.52
2023-05-01T05:49:25.941Z,97.30
2023-05-01T05:51:54.148Z,95.99
2023-05-01T05:54:22.340Z,96.23
2023-05-01T05:56:50.492Z,95.76
2023-05-01T05:59:18.634Z,95.80
2023-05-01T06:01:48.342Z,96.01
2023-05-01T06:04:16.505Z,94.95
2023-05-01T06:06:44.861Z,95.01
2023-05-01T06:09:13.316Z,95.18
2023-05-01T06:11:41.465Z,92.73
2023-05-01T06:14:10.057Z,91.30
2023-05-01T06:16:39.061Z,91.23
2023-05-01T06:19:10.449Z,92.13
2023-05-01T06:21:38.775Z,91.35
2023-05-01T06:24:07.201Z,89.78
2023-05-01T06:26:35.344Z,85.96
2023-05-01T06:29:03.538Z,85.49
2023-05-01T06:31:31.692Z,83.31
2023-05-01T06:33:59.897Z,75.62
2023-05-01T06:36:29.430Z,75.17
2023-05-01T06:38:57.602Z,75.76
2023-05-01T06:41:27.201Z,78.89
2023-05-01T06:43:55.964Z,78.97
2023-05-01T06:46:24.144Z,79.71
2023-05-01T06:48:52.349Z,76.38
2023-05-01T06:51:20.627Z,75.57
2023-05-01T06:53:50.512Z,73.35
2023-05-01T06:56:18.697Z,71.27
2023-05-01T06:58:46.857Z,69.02
2023-05-01T07:01:15.302Z,68.40
2023-05-01T07:03:43.684Z,67.85
2023-05-01T07:06:12.346Z,67.37
2023-05-01T07:08:40.620Z,63.48
2023-05-01T07:11:10.196Z,65.32
2023-05-01T07:13:38.544Z,65.41
2023-05-01T07:16:07.901Z,61.15
2023-05-01T07:18:36.017Z,59.33
2023-05-01T07:21:04.246Z,59.80
2023-05-01T07:23:32.680Z,59.83
2023-05-01T07:26:01.285Z,57.60
2023-05-01T07:28:31.064Z,57.29
2023-05-01T07:30:59.868Z,58.85
2023-05-01T07:33:28.097Z,57.35
2023-05-01T07:35:56.652Z,56.73
2023-05-01T07:38:24.809Z,55.26
2023-05-01T07:40:55.377Z,57.13
2023-05-01T07:43:23.790Z,55.92
2023-05-01T07:46:02.159Z,56.17
2023-05-01T07:48:32.137Z,56.37
2023-05-01T07:51:03.391Z,55.04
2023-05-01T07:53:32.015Z,56.45
2023-05-01T07:56:08.932Z,55.73
2023-05-01T07:58:38.862Z,56.94
2023-05-01T08:01:09.286Z,54.04
2023-05-01T08:03:37.983Z,54.12
2023-05-01T08:06:06.970Z,55.10
2023-05-01T08:08:35.316Z,56.65
2023-05-01T08:11:03.542Z,59.13
2023-05-01T08:13:31.774Z,59.00
2023-05-01T08:16:02.744Z,59.37
2023-05-01T08:18:32.416Z,59.47
2023-05-01T08:21:00.552Z,60.05
2023-05-01T08:23:28.822Z,61.00
2023-05-01T08:25:57.036Z,61.38
2023-05-01T08:28:25.284Z,61.63
2023-05-01T08:30:53.461Z,61.26
2023-05-01T08:33:21.616Z,59.49
2023-05-01T08:35:51.578Z,60.10
2023-05-01T08:38:19.814Z,59.50
2023-05-01T08:40:53.520Z,60.02
2023-05-01T08:43:21.921Z,59.67
2023-05-01T08:45:51.528Z,57.68
2023-05-01T08:48:21.354Z,58.32
2023-05-01T08:50:52.816Z,57.33
2023-05-01T08:53:23.467Z,55.10
2023-05-01T08:55:53.260Z,53.34
2023-05-01T08:58:24.330Z,53.78
2023-05-01T09:00:53.063Z,53.75
2023-05-01T09:03:22.435Z,53.24
2023-05-01T09:05:53.758Z,52.86
2023-05-01T09:08:22.012Z,54.81
2023-05-01T09:10:53.007Z,52.06
2023-05-01T09:13:21.243Z,52.69
2023-05-01T09:15:49.454Z,54.89
2023-05-01T09:18:17.843Z,52.92
2023-05-01T09:20:46.058Z,52.26
2023-05-01T09:23:16.591Z,54.62
2023-05-01T09:25:44.927Z,55.07
2023-05-01T09:28:13.304Z,57.36
2023-05-01T09:30:42.202Z,55.14
2023-05-01T09:33:12.210Z,54.42
2023-05-01T09:35:50.958Z,53.20
2023-05-01T09:38:22.292Z,54.17
2023-05-01T09:40:51.219Z,54.69
2023-05-01T09:43:29.736Z,54.52
2023-05-01T09:46:03.890Z,54.64
2023-05-01T09:48:35.059Z,55.14
2023-05-01T09:51:21.587Z,55.04
2023-05-01T09:53:51.524Z,55.61
2023-05-01T09:56:21.494Z,55.14
2023-05-01T09:58:51.336Z,55.10
2023-05-01T10:01:51.328Z,54.91
2023-05-01T10:04:30.563Z,54.07
2023-05-01T10:06:58.802Z,55.00
2023-05-01T10:09:32.471Z,51.60
2023-05-01T10:12:01.167Z,49.32
2023-05-01T10:14:30.392Z,50.39
2023-05-01T10:16:59.476Z,50.99
2023-05-01T10:19:27.792Z,53.65
2023-05-01T10:21:56.275Z,55.94
2023-05-01T10:24:24.524Z,52.95
2023-05-01T10:26:55.764Z,55.40
2023-05-01T10:29:25.797Z,50.43
2023-05-01T10:31:54.105Z,51.66
2023-05-01T10:34:26.400Z,51.17
2023-05-01T10:37:02.071Z,50.70
2023-05-01T10:39:33.906Z,51.45
2023-05-01T10:42:05.725Z,50.59
2023-05-01T10:44:35.346Z,50.78
2023-05-01T10:47:37.940Z,53.96
2023-05-01T10:50:07.313Z,52.16
2023-05-01T10:53:23.777Z,53.10
2023-05-01T10:55:52.070Z,50.12
2023-05-01T10:58:59.456Z,48.07
2023-05-01T11:01:32.890Z,49.55
2023-05-01T11:04:02.044Z,47.78
2023-05-01T11:06:30.507Z,48.73
2023-05-01T11:08:58.928Z,50.36
2023-05-01T11:11:50.439Z,49.44
2023-05-01T11:14:20.211Z,51.09
2023-05-01T11:16:49.061Z,47.40
2023-05-01T11:19:52.553Z,49.04
2023-05-01T11:22:21.147Z,46.49
2023-05-01T11:24:50.102Z,51.20
2023-05-01T11:27:18.467Z,50.40
2023-05-01T11:29:49.715Z,49.15
2023-05-01T11:32:27.176Z,51.50
2023-05-01T11:34:56.011Z,52.62
2023-05-01T11:37:42.624Z,46.81
2023-05-01T11:40:22.196Z,47.99
2023-05-01T11:42:50.964Z,46.65
2023-05-01T11:45:21.218Z,46.93
2023-05-01T11:47:50.342Z,46.59
2023-05-01T11:50:18.690Z,47.49
2023-05-01T11:52:49.530Z,48.74
2023-05-01T11:55:18.099Z,48.28
2023-05-01T11:57:47.339Z,46.73
2023-05-01T12:00:17.122Z,48.46
2023-05-01T12:03:02.581Z,45.23
2023-05-01T12:05:35.633Z,45.01
2023-05-01T12:08:12.041Z,45.07
2023-05-01T12:10:42.223Z,47.90
2023-05-01T12:13:12.210Z,46.88
2023-05-01T12:15:43.693Z,49.82
2023-05-01T12:18:14.431Z,46.98
2023-05-01T12:20:44.020Z,46.75
2023-05-01T12:23:14.768Z,46.82
2023-05-01T12:25:43.895Z,45.61
2023-05-01T12:28:15.169Z,45.23
2023-05-01T12:30:44.969Z,44.22
2023-05-01T12:33:16.709Z,45.74
2023-05-01T12:35:47.086Z,45.78
2023-05-01T12:38:16.819Z,48.52
2023-05-01T12:40:54.193Z,46.30
2023-05-01T12:43:23.298Z,47.28
2023-05-01T12:45:54.589Z,47.92
2023-05-01T12:48:24.655Z,47.14
2023-05-01T12:50:54.977Z,48.42
2023-05-01T12:53:24.421Z,48.96
2023-05-01T12:55:53.854Z,47.14
2023-05-01T12:58:22.329Z,49.65
2023-05-01T13:00:52.512Z,48.19
2023-05-01T13:03:26.202Z,49.04
2023-05-01T13:05:56.530Z,49.18
2023-05-01T13:08:29.596Z,46.58
2023-05-01T13:10:59.053Z,46.92
2023-05-01T13:13:31.863Z,47.04
2023-05-01T13:16:09.340Z,48.10
2023-05-01T13:18:46.616Z,48.32
2023-05-01T13:21:16.438Z,48.86
2023-05-01T13:23:54.237Z,49.62
2023-05-01T13:26:29.107Z,48.72
2023-05-01T13:28:57.865Z,49.24
2023-05-01T13:31:26.182Z,48.85
2023-05-01T13:33:58.610Z,49.35
2023-05-01T13:36:27.584Z,46.97
2023-05-01T13:38:57.584Z,47.59
2023-05-01T13:41:27.380Z,48.26
2023-05-01T13:43:57.514Z,49.10
2023-05-01T13:46:27.871Z,50.01
2023-05-01T13:49:04.910Z,52.14
2023-05-01T13:51:33.207Z,52.09
2023-05-01T13:54:02.420Z,53.94
2023-05-01T13:56:32.407Z,51.19
2023-05-01T13:59:01.160Z,52.52
2023-05-01T14:01:29.334Z,52.78
2023-05-01T14:04:00.533Z,50.32
2023-05-01T14:06:29.947Z,51.15
2023-05-01T14:09:01.155Z,52.31
2023-05-01T14:11:30.824Z,51.75
2023-05-01T14:14:00.546Z,49.87
2023-05-01T14:16:31.675Z,50.42
2023-05-01T14:19:01.320Z,50.27
2023-05-01T14:21:29.947Z,49.49
2023-05-01T14:23:58.424Z,51.46
2023-05-01T14:26:26.916Z,49.64
2023-05-01T14:28:55.777Z,51.19
2023-05-01T14:31:28.596Z,50.80
2023-05-01T14:33:58.637Z,50.50
2023-05-01T14:36:31.195Z,52.97
2023-05-01T14:39:00.254Z,52.46
2023-05-01T14:41:29.667Z,49.33
2023-05-01T14:43:57.895Z,49.96
2023-05-01T14:46:32.051Z,52.24
2023-05-01T14:49:01.283Z,50.96
2023-05-01T14:51:32.475Z,51.55
2023-05-01T14:54:00.850Z,52.87
2023-05-01T14:56:29.011Z,54.29
2023-05-01T14:58:57.166Z,51.80
2023-05-01T15:01:25.391Z,52.41
2023-05-01T15:03:54.284Z,52.06
2023-05-01T15:06:24.517Z,50.43
2023-05-01T15:08:54.170Z,52.36
2023-05-01T15:11:22.412Z,54.27
2023-05-01T15:13:50.900Z,51.27
2023-05-01T15:16:19.145Z,51.12
2023-05-01T15:18:47.563Z,52.94
2023-05-01T15:21:15.790Z,53.37
2023-05-01T15:23:45.434Z,52.85
2023-05-01T15:26:15.125Z,53.41
2023-05-01T15:28:43.325Z,53.80
2023-05-01T15:31:11.694Z,52.67
2023-05-01T15:33:40.134Z,52.02
2023-05-01T15:36:08.667Z,52.96
2023-05-01T15:38:36.876Z,54.23
2023-05-01T15:41:05.279Z,53.88
2023-05-01T15:43:34.894Z,54.05
2023-05-01T15:46:03.308Z,54.25
2023-05-01T15:48:31.545Z,55.85
2023-05-01T15:50:59.714Z,55.15
2023-05-01T15:53:27.878Z,55.53
2023-05-01T15:55:58.596Z,55.84
2023-05-01T15:58:26.906Z,57.62
2023-05-01T16:00:56.584Z,56.94
2023-05-01T16:03:24.888Z,57.04
2023-05-01T16:05:53.682Z,55.43
2023-05-01T16:08:22.004Z,55.35
2023-05-01T16:10:50.384Z,56.36
2023-05-01T16:13:18.515Z,55.01
2023-05-01T16:15:46.626Z,56.72
2023-05-01T16:18:21.814Z,57.13
2023-05-01T16:20:53.487Z,58.38
2023-05-01T16:23:21.841Z,57.77
2023-05-01T16:25:50.081Z,56.16
2023-05-01T16:28:18.751Z,56.38
2023-05-01T16:30:47.175Z,58.79
2023-05-01T16:33:21.280Z,57.88
2023-05-01T16:35:50.363Z,58.33
2023-05-01T16:38:19.147Z,58.00
2023-05-01T16:40:48.785Z,57.30
2023-05-01T16:43:17.117Z,58.22
2023-05-01T16:45:46.723Z,57.51
2023-05-01T16:48:21.893Z,57.10
2023-05-01T16:50:52.445Z,57.20
2023-05-01T16:53:21.482Z,58.35
2023-05-01T16:55:49.638Z,58.44
2023-05-01T16:58:17.792Z,59.49
2023-05-01T17:00:45.984Z,59.17
2023-05-01T17:03:15.415Z,59.31
2023-05-01T17:05:43.647Z,59.33
2023-05-01T17:08:13.185Z,59.43
2023-05-01T17:10:41.266Z,60.42
2023-05-01T17:13:09.417Z,60.82
2023-05-01T17:15:37.577Z,60.59
2023-05-01T17:18:05.896Z,60.16
2023-05-01T17:20:34.168Z,60.53
2023-05-01T17:23:02.293Z,60.72
2023-05-01T17:25:32.075Z,60.85
2023-05-01T17:28:00.474Z,61.39
2023-05-01T17:30:28.697Z,61.30
2023-05-01T17:32:58.048Z,61.87
2023-05-01T17:35:26.456Z,62.45
2023-05-01T17:37:54.661Z,63.88
2023-05-01T17:40:22.761Z,64.83
2023-05-01T17:42:52.295Z,66.11
2023-05-01T17:45:20.794Z,66.33
2023-05-01T17:47:48.984Z,67.45
2023-05-01T17:50:17.306Z,67.33
2023-05-01T17:52:45.649Z,70.20
2023-05-01T17:55:17.133Z,69.16
2023-05-01T17:57:47.898Z,70.05
2023-05-01T18:00:18.416Z,71.46
2023-05-01T18:02:47.861Z,71.98
2023-05-01T18:05:16.505Z,73.40
2023-05-01T18:07:44.689Z,74.56
2023-05-01T18:10:13.018Z,75.98
2023-05-01T18:12:41.112Z,76.18
2023-05-01T18:15:10.288Z,76.84
2023-05-01T18:17:40.194Z,76.48
2023-05-01T18:20:09.532Z,74.13
2023-05-01T18:22:37.759Z,72.09
2023-05-01T18:25:06.568Z,73.22
2023-05-01T18:27:34.968Z,73.56
2023-05-01T18:30:03.370Z,73.64
2023-05-01T18:32:46.268Z,73.73
2023-05-01T18:35:18.742Z,75.88
2023-05-01T18:37:47.219Z,76.48
2023-05-01T18:40:15.487Z,76.80
2023-05-01T18:42:44.053Z,77.05
2023-05-01T18:45:12.409Z,77.07
2023-05-01T18:47:41.061Z,75.32
2023-05-01T18:50:10.697Z,75.83
2023-05-01T18:52:41.892Z,76.73
2023-05-01T18:55:11.531Z,79.71
2023-05-01T18:57:41.858Z,80.72
2023-05-01T19:00:11.564Z,82.21
2023-05-01T19:02:46.142Z,80.39
2023-05-01T19:05:18.158Z,78.69
2023-05-01T19:07:53.574Z,79.47
2023-05-01T19:10:29.203Z,78.56
2023-05-01T19:13:09.016Z,78.17
2023-05-01T19:15:45.926Z,77.16
2023-05-01T19:18:28.106Z,78.14
2023-05-01T19:21:08.451Z,78.79
2023-05-01T19:23:44.916Z,78.90
2023-05-01T19:26:21.872Z,78.80
2023-05-01T19:28:53.402Z,77.82
2023-05-01T19:31:26.480Z,78.10
2023-05-01T19:33:59.051Z,79.10
2023-05-01T19:36:31.831Z,80.19
2023-05-01T19:39:06.582Z,78.54
2023-05-01T19:41:40.391Z,77.06
2023-05-01T19:44:18.240Z,76.07
2023-05-01T19:46:52.074Z,75.46
2023-05-01T19:49:25.961Z,75.57
2023-05-01T19:51:59.628Z,74.96
2023-05-01T19:54:34.965Z,75.82
2023-05-01T19:57:05.863Z,76.53
2023-05-01T19:59:40.688Z,75.37
2023-05-01T20:02:17.052Z,74.83
2023-05-01T20:04:46.765Z,76.28
2023-05-01T20:07:18.630Z,76.99
2023-05-01T20:09:56.492Z,75.93
2023-05-01T20:12:29.874Z,75.63
2023-05-01T20:15:02.542Z,75.26
2023-05-01T20:17:37.349Z,74.97
2023-05-01T20:20:14.987Z,75.09
2023-05-01T20:22:46.404Z,75.51
2023-05-01T20:25:21.879Z,76.12
2023-05-01T20:27:58.379Z,76.62
2023-05-01T20:30:31.789Z,74.73
2023-05-01T20:33:09.219Z,74.75
2023-05-01T20:35:46.080Z,74.62
2023-05-01T20:38:22.798Z,74.87
2023-05-01T20:41:00.273Z,75.94
2023-05-01T20:43:38.303Z,77.05
2023-05-01T20:46:06.637Z,76.42
2023-05-01T20:48:34.829Z,75.68
2023-05-01T20:51:02.998Z,75.66
2023-05-01T20:53:49.089Z,75.29
2023-05-01T20:56:18.686Z,75.50
2023-05-01T20:58:46.855Z,75.96
2023-05-01T21:01:15.354Z,76.62
2023-05-01T21:03:49.517Z,76.37
2023-05-01T21:06:17.889Z,76.86
2023-05-01T21:08:46.337Z,76.79
2023-05-01T21:11:14.543Z,77.66
2023-05-01T21:13:45.154Z,78.05
2023-05-01T21:16:16.992Z,79.86
2023-05-01T21:18:45.215Z,81.86
2023-05-01T21:21:16.892Z,83.20
2023-05-01T21:23:49.109Z,83.45
2023-05-01T21:26:19.120Z,82.81
2023-05-01T21:28:48.890Z,82.69
2023-05-01T21:31:18.192Z,82.35
2023-05-01T21:33:46.918Z,81.75
2023-05-01T21:36:19.316Z,81.20
2023-05-01T21:38:47.884Z,81.47
2023-05-01T21:41:16.558Z,80.98
2023-05-01T21:43:45.107Z,80.86
2023-05-01T21:46:17.559Z,81.37
2023-05-01T21:48:50.576Z,81.28
2023-05-01T21:51:19.445Z,80.79
2023-05-01T21:53:47.682Z,80.38
2023-05-01T21:56:15.901Z,79.96
2023-05-01T21:58:44.110Z,79.72
2023-05-01T22:01:17.402Z,80.21
2023-05-01T22:03:50.454Z,80.10
2023-05-01T22:06:19.615Z,80.33
2023-05-01T22:08:48.736Z,80.81
2023-05-01T22:11:17.320Z,80.75
2023-05-01T22:13:45.628Z,80.95
2023-05-01T22:16:15.256Z,81.06
2023-05-01T22:18:43.442Z,82.73
2023-05-01T22:21:11.623Z,83.94
2023-05-01T22:23:39.743Z,83.11
2023-05-01T22:26:07.900Z,84.75
2023-05-01T22:28:35.986Z,84.01
2023-05-01T22:31:04.157Z,83.05
2023-05-01T22:33:33.705Z,84.02
2023-05-01T22:36:01.821Z,83.12
2023-05-01T22:38:30.025Z,84.80
2023-05-01T22:40:58.130Z,87.10
2023-05-01T22:43:26.268Z,87.54
2023-05-01T22:45:54.429Z,84.90
2023-05-01T22:48:22.663Z,86.51
2023-05-01T22:50:52.365Z,85.92
2023-05-01T22:53:20.634Z,86.84
2023-05-01T22:55:48.720Z,87.74
2023-05-01T22:58:16.921Z,88.19
2023-05-01T23:00:45.114Z,87.32
2023-05-01T23:03:13.359Z,87.91
2023-05-01T23:05:41.513Z,88.18
2023-05-01T23:08:11.042Z,87.83
2023-05-01T23:10:42.340Z,88.71
2023-05-01T23:13:19.010Z,88.27
2023-05-01T23:15:50.108Z,88.40
2023-05-01T23:18:24.185Z,88.46
2023-05-01T23:20:53.101Z,88.31
2023-05-01T23:23:23.136Z,87.94
2023-05-01T23:25:51.413Z,87.62
2023-05-01T23:28:26.104Z,87.61
2023-05-01T23:30:56.671Z,87.94
2023-05-01T23:33:26.219Z,87.91
2023-05-01T23:35:54.306Z,87.90
2023-05-01T23:38:23.818Z,88.46
2023-05-01T23:40:52.088Z,89.58
2023-05-01T23:43:20.680Z,89.62
2023-05-01T23:45:48.857Z,89.51
2023-05-01T23:48:17.168Z,90.25
2023-05-01T23:50:45.568Z,91.21
2023-05-01T23:53:13.895Z,88.03
2023-05-01T23:55:46.050Z,87.99
2023-05-01T23:58:14.864Z,89.80
